Terminal Aerodrome Forecast
Issued by NWS Tiyan, Guam

Home | Current Version | Previous Version | Text Only | Print | Product List | Glossary On
Versions: 1 2 3 4 5 6 7 8 9 10 11 12 13 14 15 16 17 18 19 20 21 22 23 24 25 26 27 28 29 30 31 32 33
000
FTPQ31 PGUM 230600 AAA
TAFPQ
TAF AMD
PGUM 230658Z 2307/2412 28011KT P6SM VCTS SCT014CB BKN040 BKN100
     FM230700 30011KT P6SM VCSH SCT015 BKN040 BKN100
      TEMPO 2307/2309 BKN015 BKN070=

USA.gov is the U.S. government's official web portal to all federal, state and local government web resources and services.